createdAt,value
2022-10-02T00:04:22.396Z,71.02
2022-10-02T00:11:15.617Z,71.03
2022-10-02T00:18:07.392Z,71.28
2022-10-02T00:25:03.791Z,71.55
2022-10-02T00:32:00.573Z,71.39
2022-10-02T00:38:57.839Z,71.36
2022-10-02T00:46:39.962Z,71.32
2022-10-02T00:53:39.373Z,71.23
2022-10-02T01:00:25.844Z,70.95
2022-10-02T01:07:15.215Z,71.06
2022-10-02T01:14:01.892Z,71.30
2022-10-02T01:20:49.792Z,70.32
2022-10-02T01:27:39.727Z,71.37
2022-10-02T01:34:26.338Z,71.31
2022-10-02T01:41:13.212Z,70.40
2022-10-02T01:48:08.190Z,71.14
2022-10-02T01:55:15.711Z,71.36
2022-10-02T02:02:15.991Z,71.50
2022-10-02T02:09:12.429Z,71.85
2022-10-02T02:16:04.735Z,71.64
2022-10-02T02:22:54.226Z,71.55
2022-10-02T02:29:45.274Z,71.54
2022-10-02T02:36:37.053Z,71.86
2022-10-02T02:43:30.243Z,71.61
2022-10-02T03:04:07.276Z,72.01
2022-10-02T03:11:07.986Z,71.89
2022-10-02T03:18:18.773Z,72.14
2022-10-02T03:25:15.826Z,71.56
2022-10-02T03:32:02.772Z,71.83
2022-10-02T03:39:00.676Z,72.39
2022-10-02T03:45:54.426Z,72.74
2022-10-02T03:52:39.873Z,73.20
2022-10-02T03:59:41.541Z,73.78
2022-10-02T04:06:45.244Z,73.66
2022-10-02T04:13:36.937Z,73.73
2022-10-02T04:20:27.992Z,73.97
2022-10-02T04:27:23.801Z,74.05
2022-10-02T04:34:13.162Z,74.40
2022-10-02T04:41:14.885Z,74.60
2022-10-02T04:48:48.456Z,74.85
2022-10-02T04:55:59.667Z,74.38
2022-10-02T05:03:21.872Z,74.47
2022-10-02T05:10:32.945Z,74.71
2022-10-02T05:17:38.072Z,75.36
2022-10-02T05:24:46.148Z,75.40
2022-10-02T05:31:46.860Z,75.48
2022-10-02T05:39:07.297Z,75.71
2022-10-02T05:45:59.912Z,75.87
2022-10-02T05:52:55.619Z,75.82
2022-10-02T05:59:51.413Z,76.10
2022-10-02T06:06:44.634Z,76.33
2022-10-02T06:13:38.018Z,76.74
2022-10-02T06:20:29.058Z,76.76
2022-10-02T06:27:26.959Z,76.73
2022-10-02T06:34:16.076Z,77.08
2022-10-02T06:41:10.324Z,77.43
2022-10-02T06:48:22.609Z,78.01
2022-10-02T06:55:41.020Z,77.84
2022-10-02T07:03:02.481Z,78.18
2022-10-02T07:10:21.623Z,77.92
2022-10-02T07:17:25.188Z,77.87
2022-10-02T07:24:39.884Z,78.09
2022-10-02T07:31:38.963Z,78.08
2022-10-02T07:38:48.725Z,78.02
2022-10-02T07:45:41.473Z,78.10
2022-10-02T07:52:45.908Z,78.46
2022-10-02T07:59:34.817Z,78.13
2022-10-02T08:06:21.588Z,78.17
2022-10-02T08:13:20.566Z,78.65
2022-10-02T08:20:18.607Z,78.17
2022-10-02T08:27:09.428Z,78.52
2022-10-02T08:33:57.561Z,78.58
2022-10-02T08:41:19.794Z,79.46
2022-10-02T08:49:02.183Z,79.44
2022-10-02T08:56:08.320Z,79.53
2022-10-02T09:03:45.852Z,79.07
2022-10-02T09:10:59.020Z,77.09
2022-10-02T09:18:17.796Z,78.46
2022-10-02T09:25:25.177Z,78.17
2022-10-02T09:33:01.121Z,78.86
2022-10-02T09:40:20.839Z,78.61
2022-10-02T09:48:05.121Z,78.34
2022-10-02T09:55:45.586Z,78.49
2022-10-02T10:03:24.213Z,77.67
2022-10-02T10:10:43.996Z,77.20
2022-10-02T10:18:26.712Z,77.69
2022-10-02T10:25:57.749Z,77.23
2022-10-02T10:33:40.092Z,76.22
2022-10-02T10:40:49.630Z,75.65
2022-10-02T10:48:05.539Z,75.60
2022-10-02T10:55:04.757Z,75.01
2022-10-02T11:02:15.100Z,75.17
2022-10-02T11:10:07.700Z,74.87
2022-10-02T11:17:42.302Z,74.41
2022-10-02T11:24:51.674Z,73.59
2022-10-02T11:32:03.410Z,73.72
2022-10-02T11:39:44.053Z,73.97
2022-10-02T11:47:04.756Z,73.73
2022-10-02T11:54:24.116Z,74.07
2022-10-02T12:01:22.184Z,73.92
2022-10-02T12:08:19.780Z,73.84
2022-10-02T12:15:23.998Z,73.98
2022-10-02T12:22:34.617Z,73.77
2022-10-02T12:29:41.047Z,73.54
2022-10-02T12:36:58.544Z,73.65
2022-10-02T12:44:25.595Z,73.58
2022-10-02T12:51:39.941Z,73.23
2022-10-02T12:58:39.468Z,72.69
2022-10-02T13:06:01.893Z,72.82
2022-10-02T13:13:15.844Z,72.51
2022-10-02T13:20:26.334Z,72.61
2022-10-02T13:27:31.365Z,71.78
2022-10-02T13:34:39.588Z,72.29
2022-10-02T13:41:46.849Z,72.75
2022-10-02T13:48:44.957Z,73.21
2022-10-02T13:55:34.598Z,73.25
2022-10-02T14:02:44.270Z,74.10
2022-10-02T14:09:46.645Z,73.87
2022-10-02T14:16:48.810Z,73.78
2022-10-02T14:24:06.813Z,74.32
2022-10-02T14:31:25.083Z,74.08
2022-10-02T14:38:38.033Z,74.16
2022-10-02T14:46:04.469Z,74.26
2022-10-02T14:53:16.130Z,73.83
2022-10-02T15:00:19.820Z,73.76
2022-10-02T15:07:15.004Z,73.08
2022-10-02T15:14:09.736Z,72.80
2022-10-02T15:21:02.141Z,72.26
2022-10-02T15:28:31.255Z,71.94
2022-10-02T15:35:39.715Z,71.83
2022-10-02T15:42:51.799Z,71.36
2022-10-02T15:49:59.991Z,71.26
2022-10-02T15:57:07.289Z,69.95
2022-10-02T16:04:00.361Z,70.58
2022-10-02T16:11:09.669Z,70.49
2022-10-02T16:18:21.894Z,70.05
2022-10-02T16:25:32.329Z,70.45
2022-10-02T16:32:28.508Z,70.34
2022-10-02T16:39:46.186Z,70.58
2022-10-02T16:46:44.243Z,70.31
2022-10-02T16:53:37.537Z,70.17
2022-10-02T17:00:29.020Z,69.92
2022-10-02T17:07:43.188Z,70.18
2022-10-02T17:14:40.673Z,69.65
2022-10-02T17:21:32.465Z,69.84
2022-10-02T17:28:28.930Z,69.59
2022-10-02T17:35:21.394Z,69.81
2022-10-02T17:42:16.895Z,69.53
2022-10-02T17:49:15.412Z,68.80
2022-10-02T17:56:31.018Z,68.38
2022-10-02T18:03:40.763Z,67.50
2022-10-02T18:10:39.502Z,67.53
2022-10-02T18:17:43.571Z,67.04
2022-10-02T18:24:48.087Z,66.60
2022-10-02T18:32:01.225Z,66.06
2022-10-02T18:38:58.891Z,65.67
2022-10-02T18:45:51.262Z,64.95
2022-10-02T18:53:07.104Z,64.71
2022-10-02T19:00:07.413Z,64.14
2022-10-02T19:07:03.060Z,63.98
2022-10-02T19:13:52.299Z,63.44
2022-10-02T19:20:45.017Z,63.15
2022-10-02T19:27:34.957Z,62.78
2022-10-02T19:34:28.541Z,62.70
2022-10-02T19:41:16.895Z,62.67
2022-10-02T19:48:06.023Z,62.39
2022-10-02T19:54:55.697Z,62.38
2022-10-02T20:01:53.159Z,62.19
2022-10-02T20:08:45.437Z,61.85
2022-10-02T20:15:53.509Z,61.78
2022-10-02T20:22:43.159Z,61.39
2022-10-02T20:29:36.758Z,61.74
2022-10-02T20:36:30.924Z,61.26
2022-10-02T20:43:22.961Z,61.48
2022-10-02T20:50:36.288Z,61.42
2022-10-02T20:58:03.493Z,61.46
2022-10-02T21:05:25.173Z,61.55
2022-10-02T21:12:40.378Z,61.91
2022-10-02T21:20:08.326Z,62.10
2022-10-02T21:27:30.192Z,62.62
2022-10-02T21:34:35.799Z,63.36
2022-10-02T21:42:17.460Z,63.65
2022-10-02T21:50:09.591Z,63.94
2022-10-02T21:57:54.278Z,63.91
2022-10-02T22:05:22.536Z,64.36
2022-10-02T22:12:38.428Z,64.56
2022-10-02T22:19:44.631Z,64.40
2022-10-02T22:27:02.202Z,64.42
2022-10-02T22:34:03.944Z,64.48
2022-10-02T22:40:53.831Z,64.30
2022-10-02T22:47:54.030Z,64.56
2022-10-02T22:54:50.309Z,64.38
2022-10-02T23:01:47.113Z,64.18
2022-10-02T23:08:40.756Z,64.43
2022-10-02T23:15:42.746Z,64.08
2022-10-02T23:22:35.689Z,64.17
2022-10-02T23:29:38.130Z,64.16
2022-10-02T23:36:30.487Z,63.97
2022-10-02T23:43:24.045Z,63.49
2022-10-02T23:50:24.320Z,63.51
2022-10-02T23:57:52.908Z,63.33
